createdAt,value
2023-07-18T00:02:00.538Z,15.71
2023-07-18T00:04:29.302Z,15.71
2023-07-18T00:06:57.257Z,15.70
2023-07-18T00:09:25.578Z,15.66
2023-07-18T00:11:53.474Z,15.50
2023-07-18T00:14:21.338Z,15.41
2023-07-18T00:16:49.377Z,15.33
2023-07-18T00:19:20.707Z,15.20
2023-07-18T00:21:49.033Z,15.25
2023-07-18T00:24:17.000Z,15.22
2023-07-18T00:26:44.944Z,15.14
2023-07-18T00:29:12.789Z,15.10
2023-07-18T00:31:40.702Z,15.07
2023-07-18T00:34:08.557Z,15.01
2023-07-18T00:36:37.753Z,14.99
2023-07-18T00:39:05.700Z,14.95
2023-07-18T00:41:33.547Z,14.87
2023-07-18T00:44:01.445Z,14.66
2023-07-18T00:46:30.394Z,14.77
2023-07-18T00:48:59.075Z,14.73
2023-07-18T00:54:51.298Z,14.65
2023-07-18T00:57:19.214Z,14.59
2023-07-18T00:59:47.020Z,14.57
2023-07-18T01:02:14.951Z,14.54
2023-07-18T01:04:42.873Z,14.50
2023-07-18T01:07:10.757Z,14.46
2023-07-18T01:09:38.637Z,14.43
2023-07-18T01:12:08.990Z,14.42
2023-07-18T01:14:36.828Z,14.37
2023-07-18T01:17:06.698Z,14.35
2023-07-18T01:19:36.461Z,14.32
2023-07-18T01:22:06.069Z,14.28
2023-07-18T01:24:33.950Z,14.23
2023-07-18T01:27:01.769Z,14.16
2023-07-18T01:29:29.608Z,14.12
2023-07-18T01:31:57.433Z,14.03
2023-07-18T01:34:25.397Z,13.99
2023-07-18T01:36:54.018Z,13.99
2023-07-18T01:39:23.233Z,13.96
2023-07-18T01:41:51.073Z,13.95
2023-07-18T01:44:19.109Z,13.92
2023-07-18T01:46:47.029Z,13.89
2023-07-18T01:49:14.927Z,13.88
2023-07-18T01:51:42.817Z,13.84
2023-07-18T01:54:10.679Z,13.79
2023-07-18T01:56:41.315Z,13.79
2023-07-18T01:59:09.240Z,13.77
2023-07-18T02:01:37.132Z,13.75
2023-07-18T02:04:05.092Z,13.74
2023-07-18T02:06:32.885Z,13.74
2023-07-18T02:09:00.786Z,13.73
2023-07-18T02:11:28.616Z,13.72
2023-07-18T02:13:57.851Z,13.72
2023-07-18T02:16:25.715Z,13.71
2023-07-18T02:18:54.840Z,13.71
2023-07-18T02:21:22.846Z,13.71
2023-07-18T02:23:50.671Z,13.70
2023-07-18T02:26:18.485Z,13.69
2023-07-18T02:28:46.412Z,13.63
2023-07-18T02:31:15.592Z,13.66
2023-07-18T02:33:43.486Z,13.65
2023-07-18T02:36:12.786Z,13.64
2023-07-18T02:38:40.668Z,13.61
2023-07-18T02:41:08.467Z,13.61
2023-07-18T02:43:36.299Z,13.58
2023-07-18T02:46:04.066Z,13.56
2023-07-18T02:48:33.248Z,13.53
2023-07-18T02:51:01.020Z,13.52
2023-07-18T02:53:28.900Z,13.51
2023-07-18T02:55:56.668Z,13.50
2023-07-18T02:58:24.491Z,13.50
2023-07-18T03:00:53.185Z,13.48
2023-07-18T03:03:23.936Z,13.47
2023-07-18T03:05:54.830Z,13.46
2023-07-18T03:08:22.604Z,13.45
2023-07-18T03:10:51.402Z,13.43
2023-07-18T03:13:19.198Z,13.43
2023-07-18T03:15:47.769Z,13.40
2023-07-18T03:18:15.580Z,13.37
2023-07-18T03:20:43.404Z,13.37
2023-07-18T03:23:12.632Z,13.36
2023-07-18T03:25:40.474Z,13.35
2023-07-18T03:28:09.702Z,13.31
2023-07-18T03:30:37.793Z,13.32
2023-07-18T03:33:05.676Z,13.30
2023-07-18T03:35:33.808Z,13.28
2023-07-18T03:38:01.634Z,13.27
2023-07-18T03:40:30.821Z,13.27
2023-07-18T03:42:58.621Z,13.28
2023-07-18T03:45:26.411Z,13.25
2023-07-18T03:47:54.286Z,13.26
2023-07-18T03:50:22.110Z,13.25
2023-07-18T03:52:50.025Z,13.24
2023-07-18T03:55:17.889Z,13.26
2023-07-18T03:57:47.073Z,13.26
2023-07-18T04:00:18.429Z,13.27
2023-07-18T04:02:47.673Z,13.27
2023-07-18T04:05:16.324Z,13.30
2023-07-18T04:07:45.327Z,13.31
2023-07-18T04:10:13.836Z,13.27
2023-07-18T04:12:41.681Z,13.20
2023-07-18T04:15:12.812Z,13.37
2023-07-18T04:17:41.202Z,13.38
2023-07-18T04:20:09.724Z,13.40
2023-07-18T04:22:37.617Z,13.43
2023-07-18T04:25:06.223Z,13.44
2023-07-18T04:27:34.014Z,13.50
2023-07-18T04:30:01.761Z,13.53
2023-07-18T04:32:32.011Z,13.58
2023-07-18T04:34:59.845Z,13.63
2023-07-18T04:37:29.350Z,13.68
2023-07-18T04:39:57.184Z,13.73
2023-07-18T04:42:24.985Z,13.77
2023-07-18T04:44:52.729Z,13.85
2023-07-18T04:47:21.455Z,13.92
2023-07-18T04:49:50.681Z,13.98
2023-07-18T04:52:18.745Z,14.06
2023-07-18T04:54:46.543Z,14.14
2023-07-18T04:57:14.349Z,14.24
2023-07-18T04:59:42.862Z,14.31
2023-07-18T05:02:10.728Z,14.41
2023-07-18T05:04:38.617Z,14.51
2023-07-18T05:07:08.411Z,14.57
2023-07-18T05:09:36.449Z,14.69
2023-07-18T05:12:04.661Z,14.82
2023-07-18T05:14:32.864Z,14.94
2023-07-18T05:17:00.805Z,15.05
2023-07-18T05:19:28.610Z,15.16
2023-07-18T05:21:56.364Z,15.26
2023-07-18T05:24:25.937Z,15.37
2023-07-18T05:26:54.126Z,15.49
2023-07-18T05:29:21.919Z,15.59
2023-07-18T05:31:49.723Z,15.72
2023-07-18T05:34:17.848Z,15.83
2023-07-18T05:36:45.727Z,15.95
2023-07-18T05:39:13.556Z,16.01
2023-07-18T05:41:42.690Z,16.10
2023-07-18T05:44:11.346Z,16.15
2023-07-18T05:46:41.040Z,16.20
2023-07-18T05:49:09.282Z,16.34
2023-07-18T05:51:37.051Z,16.45
2023-07-18T05:54:05.569Z,16.50
2023-07-18T05:56:33.751Z,16.63
2023-07-18T05:59:06.479Z,16.71
2023-07-18T06:01:34.683Z,16.76
2023-07-18T06:04:02.773Z,16.78
2023-07-18T06:06:30.596Z,16.86
2023-07-18T06:08:58.379Z,16.83
2023-07-18T06:11:26.189Z,16.86
2023-07-18T06:13:53.949Z,16.87
2023-07-18T06:16:23.177Z,17.00
2023-07-18T06:18:50.972Z,17.04
2023-07-18T06:21:18.998Z,17.07
2023-07-18T06:23:47.705Z,17.15
2023-07-18T06:26:15.721Z,17.23
2023-07-18T06:28:43.566Z,17.28
2023-07-18T06:31:11.960Z,17.43
2023-07-18T06:33:41.606Z,17.56
2023-07-18T06:36:09.477Z,17.60
2023-07-18T06:38:37.345Z,17.64
2023-07-18T06:41:05.136Z,17.67
2023-07-18T06:43:33.573Z,17.53
2023-07-18T06:46:01.703Z,17.55
2023-07-18T06:48:29.534Z,17.69
2023-07-18T06:51:00.783Z,17.73
2023-07-18T06:53:28.834Z,17.90
2023-07-18T06:55:56.966Z,17.98
2023-07-18T06:58:24.877Z,18.10
2023-07-18T07:00:52.791Z,17.98
2023-07-18T07:03:20.751Z,17.89
2023-07-18T07:05:48.686Z,17.86
2023-07-18T07:08:20.228Z,17.91
2023-07-18T07:10:48.059Z,17.96
2023-07-18T07:13:15.919Z,17.93
2023-07-18T07:15:43.717Z,18.10
2023-07-18T07:18:11.541Z,18.27
2023-07-18T07:20:39.324Z,18.38
2023-07-18T07:23:07.178Z,18.31
2023-07-18T07:25:36.439Z,18.41
2023-07-18T07:28:05.401Z,18.61
2023-07-18T07:30:33.290Z,18.64
2023-07-18T07:33:01.329Z,18.62
2023-07-18T07:35:30.502Z,18.46
2023-07-18T07:37:58.390Z,18.42
2023-07-18T07:40:26.210Z,18.45
2023-07-18T07:42:55.352Z,18.45
2023-07-18T07:45:23.225Z,18.49
2023-07-18T07:47:51.189Z,18.44
2023-07-18T07:50:19.027Z,18.67
2023-07-18T07:52:47.504Z,18.78
2023-07-18T07:55:15.468Z,18.98
2023-07-18T07:57:43.452Z,19.16
2023-07-18T08:00:14.258Z,19.18
2023-07-18T08:02:42.105Z,19.47
2023-07-18T08:05:10.485Z,19.65
2023-07-18T08:07:39.215Z,19.89
2023-07-18T08:10:07.818Z,19.77
2023-07-18T08:12:36.167Z,19.70
2023-07-18T08:15:05.287Z,19.79
2023-07-18T08:17:34.578Z,19.72
2023-07-18T08:20:05.490Z,19.76
2023-07-18T08:22:35.477Z,19.92
2023-07-18T08:25:05.062Z,20.06
2023-07-18T08:27:32.981Z,20.27
2023-07-18T08:30:00.786Z,20.44
2023-07-18T08:32:30.237Z,20.50
2023-07-18T08:34:59.586Z,20.38
2023-07-18T08:37:27.434Z,20.47
2023-07-18T08:39:55.232Z,20.76
2023-07-18T08:42:26.978Z,21.23
2023-07-18T08:44:56.244Z,21.49
2023-07-18T08:47:24.170Z,21.65
2023-07-18T08:49:52.072Z,21.82
2023-07-18T08:52:21.282Z,21.67
2023-07-18T08:54:50.899Z,21.11
2023-07-18T08:57:19.461Z,20.96
2023-07-18T08:59:48.971Z,21.31
2023-07-18T09:02:16.846Z,21.68
2023-07-18T09:04:47.671Z,21.73
2023-07-18T09:07:15.755Z,21.67
2023-07-18T09:09:49.096Z,21.09
2023-07-18T09:12:17.023Z,21.33
2023-07-18T09:14:45.012Z,21.59
2023-07-18T09:17:13.190Z,22.14
2023-07-18T09:19:41.977Z,22.15
2023-07-18T09:22:11.262Z,22.10
2023-07-18T09:24:39.937Z,22.34
2023-07-18T09:27:10.635Z,22.49
2023-07-18T09:29:38.784Z,22.99
2023-07-18T09:32:09.111Z,23.25
2023-07-18T09:34:37.095Z,23.67
2023-07-18T09:37:07.233Z,24.19
2023-07-18T09:39:35.583Z,24.61
2023-07-18T09:42:04.204Z,24.26
2023-07-18T09:44:37.263Z,24.06
2023-07-18T09:47:06.258Z,23.74
2023-07-18T09:49:35.124Z,23.80
2023-07-18T09:52:05.700Z,24.20
2023-07-18T09:54:34.288Z,23.90
2023-07-18T09:57:05.630Z,24.18
2023-07-18T09:59:38.580Z,24.32
2023-07-18T10:02:07.898Z,24.28
2023-07-18T10:04:36.087Z,24.47
2023-07-18T10:07:04.842Z,24.45
2023-07-18T10:09:34.020Z,24.54
2023-07-18T10:12:09.328Z,24.26
2023-07-18T10:14:51.757Z,24.70
2023-07-18T10:17:39.515Z,24.95
2023-07-18T10:20:14.770Z,24.55
2023-07-18T10:22:50.681Z,24.85
2023-07-18T10:25:22.096Z,24.51
2023-07-18T10:27:50.845Z,24.67
2023-07-18T10:30:21.274Z,24.93
2023-07-18T10:32:54.266Z,24.54
2023-07-18T10:35:23.773Z,24.91
2023-07-18T10:37:54.028Z,25.05
2023-07-18T10:40:37.227Z,24.61
2023-07-18T10:43:07.660Z,24.79
2023-07-18T10:45:40.750Z,24.91
2023-07-18T10:48:13.752Z,25.10
2023-07-18T10:50:41.805Z,25.57
2023-07-18T10:53:12.916Z,25.54
2023-07-18T10:55:40.820Z,25.79
2023-07-18T10:58:12.505Z,25.95
2023-07-18T11:00:41.985Z,26.26
2023-07-18T11:03:12.382Z,26.50
2023-07-18T11:05:41.615Z,26.02
2023-07-18T11:08:09.380Z,26.18
2023-07-18T11:10:37.290Z,26.05
2023-07-18T11:13:06.018Z,25.92
2023-07-18T11:15:33.818Z,25.74
2023-07-18T11:18:03.997Z,25.84
2023-07-18T11:20:31.954Z,26.07
2023-07-18T11:23:01.601Z,26.91
2023-07-18T11:25:29.608Z,27.72
2023-07-18T11:27:57.361Z,28.15
2023-07-18T11:30:26.141Z,27.95
2023-07-18T11:32:54.012Z,27.69
2023-07-18T11:35:24.525Z,27.37
2023-07-18T11:37:53.586Z,27.30
2023-07-18T11:40:22.928Z,27.20
2023-07-18T11:42:51.857Z,27.10
2023-07-18T11:45:21.579Z,27.05
2023-07-18T11:47:51.055Z,27.41
2023-07-18T11:50:19.086Z,27.66
2023-07-18T11:52:50.072Z,27.63
2023-07-18T11:55:18.716Z,27.40
2023-07-18T11:57:47.008Z,27.79
2023-07-18T12:00:15.964Z,28.00
2023-07-18T12:02:45.612Z,27.94
2023-07-18T12:05:15.348Z,27.67
2023-07-18T12:07:44.419Z,27.66
2023-07-18T12:10:15.894Z,27.79
2023-07-18T12:12:45.795Z,28.28
2023-07-18T12:15:14.730Z,28.83
2023-07-18T12:17:42.695Z,29.48
2023-07-18T12:20:12.001Z,30.11
2023-07-18T12:22:40.125Z,30.31
2023-07-18T12:25:08.642Z,30.24
2023-07-18T12:27:38.251Z,29.25
2023-07-18T12:30:07.459Z,28.52
2023-07-18T12:32:35.360Z,28.35
2023-07-18T12:35:03.731Z,28.49
2023-07-18T12:37:31.604Z,28.80
2023-07-18T12:39:59.448Z,28.81
2023-07-18T12:42:27.311Z,28.86
2023-07-18T12:44:56.520Z,28.41
2023-07-18T12:47:24.443Z,27.80
2023-07-18T12:52:22.959Z,27.54
2023-07-18T12:54:50.764Z,27.48
2023-07-18T12:57:18.561Z,27.93
2023-07-18T12:59:46.872Z,28.56
2023-07-18T13:02:16.449Z,28.74
2023-07-18T13:04:44.425Z,28.54
2023-07-18T13:07:12.301Z,28.61
2023-07-18T13:09:40.594Z,27.66
2023-07-18T13:12:09.578Z,27.66
2023-07-18T13:14:37.414Z,27.73
2023-07-18T13:17:05.559Z,28.65
2023-07-18T13:19:35.307Z,28.33
2023-07-18T13:22:03.276Z,28.74
2023-07-18T13:24:31.106Z,29.39
2023-07-18T13:26:58.919Z,29.76
2023-07-18T13:29:26.752Z,30.07
2023-07-18T13:31:54.624Z,30.27
2023-07-18T13:34:23.160Z,29.97
2023-07-18T13:36:52.435Z,29.99
2023-07-18T13:39:20.225Z,29.92
2023-07-18T13:41:48.131Z,29.33
2023-07-18T13:44:16.022Z,29.12
2023-07-18T13:46:43.982Z,29.28
2023-07-18T13:49:11.808Z,29.65
2023-07-18T13:51:40.491Z,29.93
2023-07-18T13:54:09.810Z,29.75
2023-07-18T13:56:37.628Z,29.25
2023-07-18T13:59:05.449Z,29.34
2023-07-18T14:01:33.347Z,30.19
2023-07-18T14:04:01.253Z,30.56
2023-07-18T14:06:29.228Z,29.65
2023-07-18T14:08:57.021Z,29.68
2023-07-18T14:11:28.344Z,29.55
2023-07-18T14:13:57.816Z,29.08
2023-07-18T14:16:25.827Z,29.27
2023-07-18T14:18:57.316Z,29.02
2023-07-18T14:21:25.626Z,29.27
2023-07-18T14:23:53.704Z,28.85
2023-07-18T14:26:22.378Z,28.82
2023-07-18T14:28:51.911Z,28.91
2023-07-18T14:31:19.799Z,29.52
2023-07-18T14:33:59.948Z,30.30
2023-07-18T14:36:33.058Z,30.38
2023-07-18T14:39:00.943Z,29.93
2023-07-18T14:41:28.790Z,29.53
2023-07-18T14:43:58.106Z,29.29
2023-07-18T14:46:26.020Z,29.64
2023-07-18T14:48:54.144Z,29.71
2023-07-18T14:51:22.594Z,29.10
2023-07-18T14:53:50.476Z,29.52
2023-07-18T14:56:18.530Z,30.08
2023-07-18T14:58:46.525Z,29.73
2023-07-18T15:01:15.803Z,29.33
2023-07-18T15:03:43.670Z,29.38
2023-07-18T15:06:11.527Z,29.54
2023-07-18T15:08:40.278Z,29.77
2023-07-18T15:11:08.141Z,30.11
2023-07-18T15:13:35.930Z,29.60
2023-07-18T15:16:04.271Z,28.73
2023-07-18T15:18:33.478Z,27.79
2023-07-18T15:21:01.540Z,27.81
2023-07-18T15:23:29.352Z,28.29
2023-07-18T15:25:58.289Z,28.36
2023-07-18T15:28:26.132Z,28.05
2023-07-18T15:30:53.961Z,28.41
2023-07-18T15:33:27.370Z,28.84
2023-07-18T15:35:57.107Z,28.88
2023-07-18T15:38:25.216Z,28.96
2023-07-18T15:40:53.013Z,29.33
2023-07-18T15:43:20.841Z,29.31
2023-07-18T15:45:49.144Z,29.32
2023-07-18T15:48:17.347Z,29.57
2023-07-18T15:50:45.194Z,29.59
2023-07-18T15:53:14.374Z,29.56
2023-07-18T15:55:42.444Z,29.67
2023-07-18T15:58:10.510Z,29.85
2023-07-18T16:00:38.366Z,30.00
2023-07-18T16:03:06.439Z,30.35
2023-07-18T16:05:34.426Z,30.65
2023-07-18T16:08:02.211Z,30.78
2023-07-18T16:10:31.452Z,31.09
2023-07-18T16:12:59.398Z,31.22
2023-07-18T16:15:27.389Z,31.35
2023-07-18T16:17:55.513Z,31.04
2023-07-18T16:20:23.531Z,30.95
2023-07-18T16:22:51.915Z,30.64
2023-07-18T16:25:19.867Z,30.80
2023-07-18T16:27:50.123Z,30.82
2023-07-18T16:30:19.154Z,30.84
2023-07-18T16:32:47.138Z,30.86
2023-07-18T16:35:15.340Z,30.96
2023-07-18T16:37:43.377Z,30.77
2023-07-18T16:40:12.207Z,30.12
2023-07-18T16:42:40.006Z,30.28
2023-07-18T16:45:10.151Z,30.63
2023-07-18T16:47:38.021Z,30.90
2023-07-18T16:50:07.025Z,31.13
2023-07-18T16:52:34.845Z,30.91
2023-07-18T16:55:02.754Z,30.97
2023-07-18T16:57:30.567Z,30.24
2023-07-18T16:59:58.429Z,29.85
2023-07-18T17:02:27.853Z,29.72
2023-07-18T17:04:56.089Z,29.14
2023-07-18T17:07:24.889Z,28.87
2023-07-18T17:09:52.662Z,28.89
2023-07-18T17:12:20.486Z,28.80
2023-07-18T17:14:48.278Z,28.98
2023-07-18T17:17:16.147Z,29.08
2023-07-18T17:19:58.906Z,28.98
2023-07-18T17:22:34.221Z,28.94
2023-07-18T17:25:04.585Z,28.66
2023-07-18T17:27:32.470Z,28.45
2023-07-18T17:30:01.793Z,28.55
2023-07-18T17:32:29.794Z,28.56
2023-07-18T17:34:59.031Z,28.38
2023-07-18T17:37:27.046Z,28.08
2023-07-18T17:42:27.025Z,27.67
2023-07-18T17:44:56.684Z,27.85
2023-07-18T17:47:24.628Z,28.14
2023-07-18T17:49:52.482Z,28.25
2023-07-18T17:52:21.686Z,28.25
2023-07-18T17:54:49.503Z,28.38
2023-07-18T17:57:17.389Z,28.41
2023-07-18T17:59:45.242Z,28.39
2023-07-18T18:02:13.191Z,28.38
2023-07-18T18:04:41.257Z,28.32
2023-07-18T18:07:10.142Z,28.26
2023-07-18T18:09:41.280Z,28.12
2023-07-18T18:12:09.521Z,28.04
2023-07-18T18:14:37.373Z,27.95
2023-07-18T18:17:05.861Z,27.91
2023-07-18T18:19:33.907Z,27.79
2023-07-18T18:22:02.464Z,27.65
2023-07-18T18:24:30.454Z,27.57
2023-07-18T18:27:00.040Z,27.46
2023-07-18T18:29:29.591Z,27.38
2023-07-18T18:31:57.416Z,27.30
2023-07-18T18:34:25.212Z,27.22
2023-07-18T18:36:53.057Z,27.09
2023-07-18T18:39:21.840Z,26.94
2023-07-18T18:41:49.694Z,26.79
2023-07-18T18:44:18.865Z,26.63
2023-07-18T18:46:46.763Z,26.44
2023-07-18T18:49:26.125Z,26.32
2023-07-18T18:51:55.338Z,26.23
2023-07-18T18:54:23.483Z,26.09
2023-07-18T18:56:53.841Z,25.95
2023-07-18T18:59:23.162Z,25.81
2023-07-18T19:01:52.024Z,25.71
2023-07-18T19:04:20.296Z,25.54
2023-07-18T19:06:48.202Z,25.47
2023-07-18T19:09:16.036Z,25.28
2023-07-18T19:11:43.864Z,25.21
2023-07-18T19:14:11.770Z,25.09
2023-07-18T19:16:41.219Z,24.97
2023-07-18T19:19:09.471Z,24.86
2023-07-18T19:21:37.343Z,24.73
2023-07-18T19:24:05.915Z,24.63
2023-07-18T19:26:34.089Z,24.54
2023-07-18T19:29:01.941Z,24.47
2023-07-18T19:31:29.841Z,24.38
2023-07-18T19:33:59.095Z,24.28
2023-07-18T19:36:26.961Z,24.18
2023-07-18T19:38:54.817Z,24.11
2023-07-18T19:41:24.313Z,24.07
2023-07-18T19:43:52.232Z,23.97
2023-07-18T19:46:20.511Z,23.85
2023-07-18T19:48:48.439Z,23.77
2023-07-18T19:51:18.039Z,23.72
2023-07-18T19:53:46.257Z,23.65
2023-07-18T19:56:14.753Z,23.59
2023-07-18T19:58:43.154Z,23.52
2023-07-18T20:01:11.010Z,23.43
2023-07-18T20:03:56.428Z,23.36
2023-07-18T20:06:28.299Z,23.27
2023-07-18T20:08:56.216Z,23.21
2023-07-18T20:11:24.140Z,23.16
2023-07-18T20:13:52.416Z,23.07
2023-07-18T20:16:20.515Z,23.00
2023-07-18T20:18:51.699Z,22.95
2023-07-18T20:21:22.061Z,22.89
2023-07-18T20:23:51.609Z,22.85
2023-07-18T20:26:19.470Z,22.78
2023-07-18T20:28:47.550Z,22.73
2023-07-18T20:31:15.470Z,22.70
2023-07-18T20:33:43.817Z,22.67
2023-07-18T20:36:11.752Z,22.59
2023-07-18T20:38:39.628Z,22.55
2023-07-18T20:41:10.307Z,22.51
2023-07-18T20:43:38.370Z,22.47
2023-07-18T20:46:08.704Z,22.47
2023-07-18T20:48:37.884Z,22.44
2023-07-18T20:51:06.937Z,22.43
2023-07-18T20:53:34.860Z,22.44
2023-07-18T20:56:02.782Z,22.45
2023-07-18T20:58:32.350Z,22.43
2023-07-18T21:01:00.227Z,22.35
2023-07-18T21:03:28.901Z,22.31
2023-07-18T21:05:56.879Z,22.26
2023-07-18T21:08:24.702Z,22.20
2023-07-18T21:10:52.488Z,22.14
2023-07-18T21:13:20.317Z,22.10
2023-07-18T21:15:49.533Z,22.06
2023-07-18T21:18:17.395Z,22.02
2023-07-18T21:20:45.214Z,21.96
2023-07-18T21:23:13.126Z,21.94
2023-07-18T21:25:41.023Z,21.89
2023-07-18T21:28:08.945Z,21.82
2023-07-18T21:30:36.783Z,21.80
2023-07-18T21:33:06.142Z,21.76
2023-07-18T21:35:34.022Z,21.74
2023-07-18T21:38:01.841Z,21.69
2023-07-18T21:40:29.674Z,21.65
2023-07-18T21:42:57.479Z,21.63
2023-07-18T21:45:25.317Z,21.61
2023-07-18T21:47:53.173Z,21.60
2023-07-18T21:50:22.529Z,21.58
2023-07-18T21:52:50.315Z,21.60
2023-07-18T21:55:18.182Z,21.57
2023-07-18T21:57:46.112Z,21.54
2023-07-18T22:00:15.840Z,21.56
2023-07-18T22:02:43.829Z,21.56
2023-07-18T22:05:11.738Z,21.54
2023-07-18T22:07:40.919Z,21.54
2023-07-18T22:10:10.016Z,21.54
2023-07-18T22:12:38.364Z,21.55
2023-07-18T22:15:08.983Z,21.54
2023-07-18T22:17:36.979Z,21.53
2023-07-18T22:20:05.325Z,21.49
2023-07-18T22:22:33.197Z,21.48
2023-07-18T22:25:02.938Z,21.48
2023-07-18T22:27:30.869Z,21.45
2023-07-18T22:29:58.695Z,21.47
2023-07-18T22:32:26.544Z,21.43
2023-07-18T22:34:54.329Z,21.42
2023-07-18T22:37:23.625Z,21.25
2023-07-18T22:39:51.472Z,21.46
2023-07-18T22:42:21.961Z,21.45
2023-07-18T22:44:50.518Z,21.49
2023-07-18T22:47:19.096Z,21.48
2023-07-18T22:49:47.539Z,21.46
2023-07-18T22:52:19.575Z,21.47
2023-07-18T22:54:48.233Z,21.47
2023-07-18T22:57:16.083Z,21.45
2023-07-18T22:59:48.021Z,21.45
2023-07-18T23:02:16.049Z,21.46
2023-07-18T23:04:43.922Z,21.46
2023-07-18T23:07:11.782Z,21.45
2023-07-18T23:09:39.862Z,21.43
2023-07-18T23:12:09.189Z,21.43
2023-07-18T23:14:37.087Z,21.40
2023-07-18T23:17:06.489Z,21.37
2023-07-18T23:19:34.292Z,21.35
2023-07-18T23:22:02.229Z,21.28
2023-07-18T23:24:30.431Z,21.23
2023-07-18T23:26:58.244Z,21.14
2023-07-18T23:29:26.136Z,21.09
2023-07-18T23:31:53.968Z,21.00
2023-07-18T23:34:23.187Z,20.91
2023-07-18T23:36:50.988Z,20.83
2023-07-18T23:39:19.130Z,20.75
2023-07-18T23:41:46.929Z,20.68
2023-07-18T23:44:14.804Z,20.62
2023-07-18T23:46:42.733Z,20.56
2023-07-18T23:49:10.644Z,20.47
2023-07-18T23:51:40.809Z,20.40
2023-07-18T23:54:08.834Z,20.34
2023-07-18T23:56:36.659Z,20.30
2023-07-18T23:59:04.513Z,20.26
